Gulf-ii — TCA2452 — position and weather

sailwx.info

Track history (hours):
 
Tides and Currents Weather Stations Pressure Air Temp Water Temp Dewpoint Dewpoint Depression Visibility Wind Speed Wind Dir Waves Ship Positions

Gulf-ii

Last reported at 2015-Aug-28 13:30 UTC. Time now 2015-Aug-29 23:34 UTC.
Position N 40°51' E 029°17'.

Length 24 m; draft 3.7 m.

Type: Tug. MMSI: 271002438.

Date/timePositionNaut miles runAvg speedWind from/ knotsBaromVisibWave heightAir tempDewpointWater temp
2015-Aug-28 13:30N 40°51' E 029°17'0 0.0
2015-Aug-28 07:12N 40°51' E 029°17'0 0.0
2015-Aug-28 04:06N 40°51' E 029°17'0 0.0
2015-Aug-28 03:12N 40°51' E 029°17'0 0.0
2015-Aug-27 23:30N 40°51' E 029°17'0 0.0
2015-Aug-27 22:30N 40°51' E 029°17'0 0.0
2015-Aug-27 20:30N 40°51' E 029°17'0 0.0
2015-Aug-27 19:30N 40°51' E 029°17'0 0.0
2015-Aug-27 18:33N 40°51' E 029°17'0 0.0
2015-Aug-27 17:09N 40°51' E 029°17'0 0.0
2015-Aug-27 16:33N 40°51' E 029°17'0 0.0
2015-Aug-27 15:27N 40°51' E 029°17'0 0.0
2015-Aug-27 14:33N 40°51' E 029°17'0 0.0
2015-Aug-27 11:33N 40°51' E 029°17'0 0.0
2015-Aug-27 10:33N 40°51' E 029°17'0 0.0
2015-Aug-27 09:33N 40°51' E 029°17'0 0.0
2015-Aug-27 08:33N 40°51' E 029°17'0 0.0
2015-Aug-25 20:33N 40°51' E 029°17'0 0.0
2015-Aug-25 19:33N 40°51' E 029°17'0 0.0
2015-Aug-25 18:15N 40°51' E 029°17'0 0.0
2015-Aug-24 15:03N 40°51' E 029°17'0 0.0
2015-Aug-24 14:27N 40°51' E 029°17'0 0.0
2015-Aug-24 06:27N 40°51' E 029°17'0 0.0
2015-Aug-23 22:09N 40°51' E 029°17'0 0.0
2015-Aug-22 21:04N 40°51' E 029°17'0 0.0
2015-Aug-22 19:22N 40°51' E 029°17'0 0.0
2015-Aug-22 06:04N 40°51' E 029°17'0 0.0
2015-Aug-22 03:16N 40°51' E 029°17'0 0.0
2015-Aug-21 20:28N 40°51' E 029°17'0 0.0
2015-Aug-21 17:16N 40°51' E 029°17'0 0.0
2015-Aug-21 16:16N 40°51' E 029°17'0 0.0
2015-Aug-21 15:04N 40°51' E 029°17'0 0.0
2015-Aug-21 14:16N 40°51' E 029°17'0 0.0
2015-Aug-21 13:22N 40°51' E 029°17'0 0.0
2015-Aug-21 11:33N 40°51' E 029°17'0 0.0
2015-Aug-21 06:24N 40°51' E 029°17'0 0.0
2015-Aug-21 05:18N 40°51' E 029°17'0 0.0
2015-Aug-20 16:06N 40°51' E 029°17'0 0.0
2015-Aug-20 10:22N 40°51' E 029°17'6 7.4
2015-Aug-20 09:33N 40°53' E 029°10'6 0.3
2015-Aug-19 12:30N 40°52' E 029°02'3 3.4
2015-Aug-19 11:32N 40°50' E 029°06'4 3.8
2015-Aug-19 10:32N 40°51' E 029°11'3 2.9
2015-Aug-19 09:23N 40°52' E 029°14'0 0.0
2015-Aug-19 08:29N 40°52' E 029°14'0 0.0
2015-Aug-19 07:29N 40°52' E 029°14'0 0.0
2015-Aug-19 06:29N 40°52' E 029°14'0 0.0
2015-Aug-19 05:29N 40°52' E 029°14'0 0.0
2015-Aug-19 04:29N 40°52' E 029°14'0 0.0
2015-Aug-19 03:23N 40°52' E 029°14'0 0.0
2015-Aug-19 02:29N 40°52' E 029°14'0 0.0
2015-Aug-19 00:29N 40°52' E 029°14'0 0.0
2015-Aug-18 23:29N 40°52' E 029°14'0 0.0
2015-Aug-18 22:29N 40°52' E 029°14'0 0.0
2015-Aug-18 21:29N 40°52' E 029°14'0 0.0
2015-Aug-18 20:29N 40°52' E 029°14'0 0.0
2015-Aug-18 19:11N 40°52' E 029°14'0 0.0
2015-Aug-18 18:23N 40°52' E 029°14'0 0.0
2015-Aug-18 17:29N 40°52' E 029°14'0 0.0
2015-Aug-18 16:17N 40°52' E 029°14'0 0.0
2015-Aug-18 15:24N 40°52' E 029°14'0 0.0
2015-Aug-18 14:29N 40°52' E 029°14'  
Track history (hours):
 
Tides and Currents Weather Stations Pressure Air Temp Water Temp Dewpoint Dewpoint Depression Visibility Wind Speed Wind Dir Waves Ship Positions

Gulf-ii

Last reported at 2015-Aug-28 13:30 UTC. Time now 2015-Aug-29 23:34 UTC.
Position N 40°51' E 029°17'.

Length 24 m; draft 3.7 m.

Type: Tug. MMSI: 271002438.

Date/timePositionNaut miles runAvg speedWind from/ knotsBaromVisibWave heightAir tempDewpointWater temp
2015-Aug-28 13:30N 40°51' E 029°17'0 0.0
2015-Aug-28 07:12N 40°51' E 029°17'0 0.0
2015-Aug-28 04:06N 40°51' E 029°17'0 0.0
2015-Aug-28 03:12N 40°51' E 029°17'0 0.0
2015-Aug-27 23:30N 40°51' E 029°17'0 0.0
2015-Aug-27 22:30N 40°51' E 029°17'0 0.0
2015-Aug-27 20:30N 40°51' E 029°17'0 0.0
2015-Aug-27 19:30N 40°51' E 029°17'0 0.0
2015-Aug-27 18:33N 40°51' E 029°17'0 0.0
2015-Aug-27 17:09N 40°51' E 029°17'0 0.0
2015-Aug-27 16:33N 40°51' E 029°17'0 0.0
2015-Aug-27 15:27N 40°51' E 029°17'0 0.0
2015-Aug-27 14:33N 40°51' E 029°17'0 0.0
2015-Aug-27 11:33N 40°51' E 029°17'0 0.0
2015-Aug-27 10:33N 40°51' E 029°17'0 0.0
2015-Aug-27 09:33N 40°51' E 029°17'0 0.0
2015-Aug-27 08:33N 40°51' E 029°17'0 0.0
2015-Aug-25 20:33N 40°51' E 029°17'0 0.0
2015-Aug-25 19:33N 40°51' E 029°17'0 0.0
2015-Aug-25 18:15N 40°51' E 029°17'0 0.0
2015-Aug-24 15:03N 40°51' E 029°17'0 0.0
2015-Aug-24 14:27N 40°51' E 029°17'0 0.0
2015-Aug-24 06:27N 40°51' E 029°17'0 0.0
2015-Aug-23 22:09N 40°51' E 029°17'0 0.0
2015-Aug-22 21:04N 40°51' E 029°17'0 0.0
2015-Aug-22 19:22N 40°51' E 029°17'0 0.0
2015-Aug-22 06:04N 40°51' E 029°17'0 0.0
2015-Aug-22 03:16N 40°51' E 029°17'0 0.0
2015-Aug-21 20:28N 40°51' E 029°17'0 0.0
2015-Aug-21 17:16N 40°51' E 029°17'0 0.0
2015-Aug-21 16:16N 40°51' E 029°17'0 0.0
2015-Aug-21 15:04N 40°51' E 029°17'0 0.0
2015-Aug-21 14:16N 40°51' E 029°17'0 0.0
2015-Aug-21 13:22N 40°51' E 029°17'0 0.0
2015-Aug-21 11:33N 40°51' E 029°17'0 0.0
2015-Aug-21 06:24N 40°51' E 029°17'0 0.0
2015-Aug-21 05:18N 40°51' E 029°17'0 0.0
2015-Aug-20 16:06N 40°51' E 029°17'0 0.0
2015-Aug-20 10:22N 40°51' E 029°17'6 7.4
2015-Aug-20 09:33N 40°53' E 029°10'6 0.3
2015-Aug-19 12:30N 40°52' E 029°02'3 3.4
2015-Aug-19 11:32N 40°50' E 029°06'4 3.8
2015-Aug-19 10:32N 40°51' E 029°11'3 2.9
2015-Aug-19 09:23N 40°52' E 029°14'0 0.0
2015-Aug-19 08:29N 40°52' E 029°14'0 0.0
2015-Aug-19 07:29N 40°52' E 029°14'0 0.0
2015-Aug-19 06:29N 40°52' E 029°14'0 0.0
2015-Aug-19 05:29N 40°52' E 029°14'0 0.0
2015-Aug-19 04:29N 40°52' E 029°14'0 0.0
2015-Aug-19 03:23N 40°52' E 029°14'0 0.0
2015-Aug-19 02:29N 40°52' E 029°14'0 0.0
2015-Aug-19 00:29N 40°52' E 029°14'0 0.0
2015-Aug-18 23:29N 40°52' E 029°14'0 0.0
2015-Aug-18 22:29N 40°52' E 029°14'0 0.0
2015-Aug-18 21:29N 40°52' E 029°14'0 0.0
2015-Aug-18 20:29N 40°52' E 029°14'0 0.0
2015-Aug-18 19:11N 40°52' E 029°14'0 0.0
2015-Aug-18 18:23N 40°52' E 029°14'0 0.0
2015-Aug-18 17:29N 40°52' E 029°14'0 0.0
2015-Aug-18 16:17N 40°52' E 029°14'0 0.0
2015-Aug-18 15:24N 40°52' E 029°14'0 0.0
2015-Aug-18 14:29N 40°52' E 029°14'  

Dump ship's entire track history